Αρχική σελίδα
METAR-TAF:

METAR-TAF

Αεροδρόμια :

Tongatapu, Τόνγκα

γεωγραφικό πλάτος: 21-14S, γεωγραφικό μήκος: 175-09W, υψόμετρο: 38 μ

Παρών καιρός

Η αναφορά έγινε 1 ώρα και 5 λεπτά πριν, στις 03:00 UTC
Άνεμος 8 kt από Α
Θερμοκρασία 25°C
Υγρασία 57%
Πίεση 1017 hPa
Ορατότητα 10 χλμ και άνω
Διάσπαρτα νέφη σε ύψος 1700 πόδια
Αρκετά νέφη σε ύψος 28000 πόδια

METAR: NFTF 180300Z 10008KT 9999 SCT017 BKN280 25/16 Q1017 RMK DRY AIR 57

Χρόνος: 17:05 (04:05 UTC)

Πρόγνωση Καιρού

Η αναφορά έγινε 4 ώρες και 39 λεπτά πριν, στις 23:26 UTC
Η πρόγνωση ισχύει από τις 18 στις 00 UTC έως τις 18 στις 24 UTC
Άνεμος 12 kt από Α/NA
Ορατότητα 10 χλμ και άνω
Λίγα νέφη σε ύψος 1600 πόδια
Διάσπαρτα νέφη σε ύψος 10000 πόδια

TAF: NFTF 172326Z 1800/1824 11012KT 9999 FEW016 SCT100

Μετεωρολογικές αναφορές και προγνώσεις για περισσότερα από 4000 αεροδρόμια (δελτία METAR και TAF).

Οι διαθέσιμοι σταθμοί απεικονίζονται στο χάρτη με κίτρινες και κόκκινες κουκκίδες.

Μετακινήστε το ποντίκι πάνω από τις κουκκίδες για να δείτε το όνομα του σταθμού.

Στη συνέχεια, κάντε κλικ για να δείτε τις μετεωρολογικές αναφορές και τις προγνώσεις καιρού.

Για να αλλάξετε το χάρτη: κάντε κλικ στα πράσινα κουμπιά με τον μαύρο σταυρό για να ζουμάρετε, στο πράσινο κουμπί με την παύλα για να αφαιρέσετε το ζουμ ή στα πράσινα βέλη για να αντιπαραβάλλετε χάρτες.


METAR-TAF: